• Join FlightAware (Why Join?)
  • Login
  • US Flag 
Rudolph Flight #1: Arrived! 
02:40PM EST


 

Airport Tracker/Info


-or-


 

Live Flight TrackerFlight Track Log ✈ EJA898 ✈ 21-Apr-2013 ✈ KBED - KTEB

Flight Track Log - Related Links

Times and Time Zones

All times are in EDT time to prevent confusion due to time zone crossing. See the EJA898 flight status page for this flight to view local times or setup timezone preferences in your user account.

Time Position Orientation Groundspeed Altitude Reporting Facility
EDT Latitude Longitude Course Direction KTS MPH feet Rate Location/Type
04:14PM 42.4667 -71.3167 236° Southwest 199 229 1,100  Level KA90
04:15PM 42.4333 -71.3833 236° Southwest 206 237 3,700 3,480 Climbing KA90
04:17PM 42.3614 -71.5325 237° Southwest 262 302 11,500 3,540 Climbing Boston Center
04:18PM 42.3478 -71.6592 262° West 282 325 14,000 1,200 Climbing Boston Center
04:19PM 42.3275 -71.7775 257° West 323 372 14,000  Level Boston Center
04:20PM 42.3014 -71.9264 257° West 367 422 14,000  Level Boston Center
04:21PM 42.2808 -72.0472 257° West 373 429 14,000  Level Boston Center
04:22PM 42.2542 -72.1933 256° West 368 423 14,000  Level Boston Center
04:23PM 42.2336 -72.3139 257° West 368 423 14,000  Level Boston Center
04:24PM 42.2067 -72.4625 256° West 373 429 14,000  Level Boston Center
04:25PM 42.1856 -72.5803 256° West 373 429 14,000  Level Boston Center
04:26PM 42.1644 -72.7144 258° West 373 429 14,000  Level Boston Center
04:27PM 42.1517 -72.8603 263° West 373 429 14,000  Level Boston Center
04:28PM 42.1428 -72.9972 265° West 366 421 14,000  Level Boston Center
04:29PM 42.1336 -73.1317 265° West 366 421 14,000  Level Boston Center
04:30PM 42.1244 -73.2658 265° West 366 421 14,000  Level Boston Center
04:31PM 42.1128 -73.4083 264° West 372 428 14,000  Level Boston Center
04:32PM 42.1033 -73.5453 265° West 372 428 14,000  Level Boston Center
04:33PM 42.0936 -73.6822 265° West 372 428 14,000  Level Boston Center
04:34PM 42.0858 -73.8108 265° West 362 417 14,000  Level Boston Center
04:35PM 42.0736 -73.9503 263° West 371 427 14,000  Level Boston Center
04:36PM 42.0633 -74.0900 264° West 371 427 14,000 -120 Level Boston Center
04:37PM 42.0550 -74.2267 265° West 371 427 13,800 -900 Descending Boston Center
04:38PM 42.0197 -74.3375 247° West 353 406 12,300 -1,740 Descending Boston Center
04:39PM 41.9183 -74.4128 209° Southwest 360 414 10,400 -1,200 Descending Boston Center
04:40PM 41.8403 -74.4686 208° Southwest 369 425 10,000 -300 Descending Boston Center
04:41PM 41.7600 -74.5247 208° Southwest 325 374 9,900 -840 Descending Boston Center
04:42PM 41.6889 -74.5389 188° South 293 337 8,400 -960 Descending Boston Center
04:43PM 41.6292 -74.6092 221° Southwest 251 289 8,000 -300 Descending Boston Center
04:44PM 41.5883 -74.6828 233° Southwest 270 311 7,900 -660 Descending Boston Center
04:45PM 41.5117 -74.6633 169° South 244 281 6,700 -960 Descending Boston Center
04:46PM 41.4539 -74.6228 152° Southeast 249 287 6,000 -300 Descending Boston Center
04:47PM 41.3500 -74.6167 177° South 272 313 6,000  Level New York TRACON
04:48PM 41.2667 -74.6167 180° South 272 313 6,000 -600 Level New York TRACON
04:49PM 41.2000 -74.6000 169° South 266 306 4,900 -1,020 Descending New York TRACON
04:50PM 41.1333 -74.5833 169° South 253 291 4,000 -600 Descending New York TRACON
04:51PM 41.0667 -74.5333 151° Southeast 250 288 3,700 -540 Descending New York TRACON
04:52PM 41.0000 -74.4833 150° Southeast 253 291 3,000 -360 Descending New York TRACON
04:53PM 40.9500 -74.4500 153° Southeast 251 289 3,000  Level New York TRACON
04:54PM 40.8833 -74.4167 159° South 247 284 3,000  Level New York TRACON
04:55PM 40.8167 -74.4000 169° South 251 289 3,000  Level New York TRACON
04:56PM 40.7500 -74.3833 169° South 246 283 3,000 -360 Level New York TRACON
04:57PM 40.7167 -74.3167 123° Southeast 226 260 2,400 -540 Descending New York TRACON
04:58PM 40.7333 -74.2500 72° East 167 192 2,000 -480 Descending New York TRACON
04:59PM 40.7500 -74.2000 66° East 162 186 1,500 -240 Descending New York TRACON
05:00PM 40.7833 -74.1667 37° Northeast 165 190 1,500 -240 Level New York TRACON
05:01PM 40.8167 -74.1167 49° Northeast 143 165 1,100 -600 Descending New York TRACON
05:02PM 40.8333 -74.0833 57° Northeast 116 133 400 -720 Descending New York TRACON
05:04PM 40.8500 -74.0500 56° Northeast  Level FlightAware Approximate
05:11PM 40.8501 -74.0608 56° Northeast  Level Estimated
05:12PM 40.8501 -74.0608 56° Northeast  Level Estimated